• Join FlightAware (Why Join?)
  • Login
  • US Flag 
05:58PM EST


 

Airport Tracker/Info


-or-


 

Live Flight TrackerFlight Track Log ✈ EJA633 ✈ 15-Nov-2013 ✈ KMMU - KMDW

Flight Track Log - Related Links

Times and Time Zones

All times are in EST time to prevent confusion due to time zone crossing. See the EJA633 flight status page for this flight to view local times or setup timezone preferences in your user account.

Time Position Orientation Groundspeed Altitude Reporting Facility
EST Latitude Longitude Course Direction KTS MPH feet Rate Location/Type
07:49AM 40.7667 -74.4333 252° West 189 217 2,000  Level New York TRACON
07:50AM 40.7167 -74.3833 143° Southeast 243 280 5,200 3,150 Climbing New York TRACON
07:51AM 40.7500 -74.3500 37° Northeast 255 293 8,300 3,158 Climbing New York TRACON
07:51AM 40.7833 -74.4167 303° West 234 269 11,200 2,852 Climbing New York TRACON
07:54AM 40.8790 -75.0239 252° West  Level Estimated
07:54AM 40.8139 -74.6069 282° West 262 302 17,000  Level New York Center
07:55AM 40.8333 -74.7122 284° West 302 348 17,900 1,500 Climbing New York Center
07:56AM 40.8250 -74.8325 265° West 325 374 20,000 2,200 Climbing New York Center
07:57AM 40.8128 -74.9494 262° West 331 381 22,300 2,250 Climbing New York Center
07:58AM 40.8019 -75.0722 263° West 331 381 24,500 2,250 Climbing New York Center
07:59AM 40.7872 -75.1919 261° West 331 381 26,800 2,150 Climbing New York Center
08:00AM 40.7744 -75.3089 262° West 331 381 28,800 2,050 Climbing New York Center
08:01AM 40.7825 -75.4217 275° West 324 373 30,900 1,800 Climbing New York Center
08:02AM 40.7944 -75.5378 278° West 324 373 32,400 1,450 Climbing New York Center
08:03AM 40.8106 -75.6567 280° West 324 373 33,800 1,350 Climbing New York Center
08:04AM 40.8222 -75.7783 277° West 329 379 35,100 1,350 Climbing New York Center
08:05AM 40.8356 -75.9000 278° West 335 386 36,500 1,400 Climbing New York Center
08:06AM 40.8511 -76.0219 280° West 335 386 37,900 1,450 Climbing New York Center
08:07AM 40.8644 -76.1436 278° West 335 386 39,400 700 Climbing New York Center
08:09AM 40.8872 -76.3733 278° West 330 380 40,000 200 Climbing New York Center
08:10AM 40.9003 -76.4897 278° West 330 380 40,000  Level New York Center
08:11AM 40.9153 -76.6092 279° West 335 386 40,000  Level New York Center
08:12AM 40.9261 -76.7281 277° West 335 386 40,000  Level New York Center
08:13AM 40.9389 -76.8447 278° West 335 386 40,000  Level New York Center
08:14AM 40.9514 -76.9639 278° West 335 386 40,000  Level New York Center
08:15AM 40.9642 -77.0806 278° West 335 386 40,000  Level New York Center
08:16AM 40.9767 -77.1972 278° West 330 380 40,000  Level New York Center
08:17AM 40.9889 -77.3164 278° West 330 380 40,000  Level New York Center
08:18AM 41.0011 -77.4333 278° West 330 380 40,000  Level New York Center
08:20AM 41.0283 -77.7222 277° West 330 380 40,000  Level Cleveland Center
08:21AM 41.0394 -77.8433 277° West 332 382 40,000  Level Cleveland Center
08:22AM 41.0511 -77.9650 277° West 335 386 40,000  Level Cleveland Center
08:23AM 41.0656 -78.1114 278° West 335 386 40,000  Level Cleveland Center
08:24AM 41.0769 -78.2347 277° West 339 390 40,000  Level Cleveland Center
08:25AM 41.0872 -78.3489 277° West 338 389 40,000  Level Cleveland Center
08:26AM 41.0989 -78.4736 277° West 340 391 40,000  Level Cleveland Center
08:27AM 41.1133 -78.6228 277° West 343 395 40,000  Level Cleveland Center
08:28AM 41.1228 -78.7444 276° West 334 384 40,000  Level Cleveland Center
08:29AM 41.1328 -78.8669 276° West 335 386 40,000  Level Cleveland Center
08:30AM 41.1433 -78.9861 277° West 338 389 40,000  Level Cleveland Center
08:31AM 41.1558 -79.1342 276° West 339 390 40,000  Level Cleveland Center
08:32AM 41.1664 -79.2586 276° West 341 392 40,000  Level Cleveland Center
08:33AM 41.1756 -79.3883 275° West 341 392 40,000  Level Cleveland Center
08:34AM 41.1867 -79.5133 277° West 341 392 40,000  Level Cleveland Center
08:36AM 41.1972 -79.6406 276° West 346 398 40,000  Level Cleveland Center
08:37AM 41.2069 -79.7619 276° West 347 399 40,000  Level Cleveland Center
08:38AM 41.2178 -79.9144 275° West 347 399 40,000  Level Cleveland Center
08:39AM 41.2294 -80.0475 277° West 348 400 40,000  Level Cleveland Center
08:40AM 41.2378 -80.1756 275° West 349 402 40,000  Level Cleveland Center
08:41AM 41.2475 -80.3017 276° West 345 397 40,000  Level Cleveland Center
08:42AM 41.2578 -80.4333 276° West 345 397 40,000  Level Cleveland Center
08:43AM 41.2664 -80.5611 275° West 345 397 40,000  Level Cleveland Center
08:44AM 41.2753 -80.6897 275° West 346 398 40,000  Level Cleveland Center
08:45AM 41.2836 -80.8178 275° West 346 398 40,000  Level Cleveland Center
08:46AM 41.2950 -80.9669 276° West 346 398 40,000  Level Cleveland Center
08:47AM 41.3028 -81.0933 275° West 341 392 40,000  Level Cleveland Center
08:48AM 41.3114 -81.2214 275° West 344 396 40,000  Level Cleveland Center
08:49AM 41.3194 -81.3486 275° West 345 397 40,000  Level Cleveland Center
08:50AM 41.3278 -81.4878 275° West 344 396 40,000  Level Cleveland Center
08:51AM 41.3361 -81.6133 275° West 344 396 40,000  Level Cleveland Center
08:52AM 41.3439 -81.7392 275° West 343 395 40,000  Level Cleveland Center
08:53AM 41.3511 -81.8647 274° West 342 394 40,000  Level Cleveland Center
08:54AM 41.3589 -81.9908 275° West 342 394 40,000  Level Cleveland Center
08:55AM 41.3667 -82.1239 274° West 343 395 40,000  Level Cleveland Center
08:56AM 41.3736 -82.2511 274° West 342 394 40,000  Level Cleveland Center
08:57AM 41.3825 -82.4000 275° West 343 395 40,000  Level Cleveland Center
08:58AM 41.3889 -82.5278 274° West 344 396 40,000  Level Cleveland Center
08:59AM 41.3956 -82.6567 274° West 346 398 40,000  Level Cleveland Center
09:00AM 41.4025 -82.7856 274° West 346 398 40,000  Level Cleveland Center
09:01AM 41.4092 -82.9153 274° West 347 399 40,000  Level Cleveland Center
09:02AM 41.4158 -83.0444 274° West 347 399 40,000  Level Cleveland Center
09:03AM 41.4219 -83.1750 274° West 350 403 40,000 -97 Level Cleveland Center
09:04AM 41.4292 -83.3050 274° West 349 402 39,800 -532 Descending Cleveland Center
09:05AM 41.4347 -83.4278 273° West 336 387 38,900 -912 Descending Cleveland Center
09:07AM 41.4417 -83.5761 274° West 336 387 37,900 -864 Descending Cleveland Center
09:08AM 41.4467 -83.7008 273° West 338 389 37,100 -871 Descending Cleveland Center
09:09AM 41.4522 -83.8294 273° West 345 397 36,100 -968 Descending Cleveland Center
09:10AM 41.4578 -83.9597 273° West 352 405 35,100 -968 Descending Cleveland Center
09:11AM 41.4628 -84.0911 273° West 354 407 34,100 -1,030 Descending Cleveland Center
09:11AM 41.4669 -84.1881 273° West 356 410 33,400 -1,030 Descending Chicago Center
09:12AM 41.4739 -84.3161 274° West 348 400 32,400 -968 Descending Chicago Center
09:13AM 41.4778 -84.4461 272° West 351 404 31,400 -968 Descending Chicago Center
09:14AM 41.4817 -84.5792 272° West 358 412 30,400 -677 Descending Chicago Center
09:15AM 41.4872 -84.7111 273° West 359 413 30,000 -339 Descending Chicago Center
09:16AM 41.4914 -84.8436 272° West 358 412 29,700 -864 Descending Chicago Center
09:18AM 41.4969 -85.0042 273° West 362 417 28,200 -1,344 Descending Chicago Center
09:19AM 41.5014 -85.1453 272° West 377 434 26,900 -1,210 Descending Chicago Center
09:20AM 41.5050 -85.2861 272° West 379 436 25,700 -1,161 Descending Chicago Center
09:21AM 41.5083 -85.4294 272° West 378 435 24,500 -1,306 Descending Chicago Center
09:22AM 41.5128 -85.5697 272° West 372 428 23,000 -1,548 Descending Chicago Center
09:23AM 41.5167 -85.7044 272° West 363 418 21,300 -1,790 Descending Chicago Center
09:24AM 41.5200 -85.8369 272° West 359 413 19,300 -1,935 Descending Chicago Center
09:25AM 41.5233 -85.9656 272° West 350 403 17,300 -2,226 Descending Chicago Center
09:26AM 41.5239 -86.1131 270° West 334 384 14,700 -2,226 Descending Chicago Center
09:27AM 41.5228 -86.2378 269° West 337 388 12,700 -1,839 Descending Chicago Center
09:28AM 41.5233 -86.3561 270° West 325 374 10,900 -1,306 Descending Chicago Center
09:29AM 41.5225 -86.4675 269° West 310 357 10,000 -432 Descending Chicago Center
09:30AM 41.5222 -86.5794 270° West 303 349 10,000 -48 Level Chicago Center
09:31AM 41.5194 -86.6881 268° West 297 342 9,900 -677 Descending Chicago Center
09:32AM 41.5203 -86.7958 271° West 249 287 8,600 -1,210 Descending Chicago Center
09:33AM 41.5186 -86.8847 269° West 242 278 7,400 -1,161 Descending Chicago Center
09:34AM 41.5181 -86.9761 270° West 244 281 6,200 -677 Descending Chicago Center
09:35AM 41.5208 -87.0653 272° West 245 282 6,000 -339 Descending Chicago Center
09:36AM 41.5389 -87.1514 286° West 241 277 5,500 -871 Descending Chicago Center
09:37AM 41.5572 -87.2553 283° West 241 277 4,200 -774 Descending Chicago Center
09:38AM 41.5683 -87.3436 280° West 241 277 3,900 -145 Descending Chicago Center
09:39AM 41.5797 -87.4328 280° West 243 280 3,900  Level Chicago Center
09:40AM 41.6133 -87.5133 299° West 250 288 3,900  Level Chicago Center
09:41AM 41.6631 -87.5803 315° West 255 293 3,900 -624 Level Chicago Center
09:42AM 41.7142 -87.6533 313° West 242 278 2,600 -1,065 Descending Chicago Center
09:43AM 41.7483 -87.6997 315° West 208 239 1,700 -435 Descending Chicago Center
09:44AM 41.7814 -87.7094 348° North 163 188 1,700 -290 Level Chicago Center
09:45AM 41.8028 -87.7344 319° Northwest 145 167 1,100 -581 Descending Chicago Center
09:47AM 41.7833 -87.7500 334° Northwest  Level FlightAware Approximate